KGLY

Clinton Regional Airport

Clinton, Missouri, USA
METAR KGLY 151435Z AUTO 20005KT 9SM OVC011 23/23 A2991 RMK AO2
Observed Flight Rules
Aug-15 @ 14:35 UTC (26 minutes ago) Marginal Visual Flight Rules
Wind Visibility Clouds
200° at 5 knots 9 miles
  • Overcast at 1,100' AGL
Temperatures Readings
Current 23°C / 73°F
Dewpoint 23°C / 73°F
Humidity 100%
Altimeter 29.91" Hg
Pressure 1013 hPa
Elevation 251
METAR KGLY 151435Z AUTO 20005KT 9SM OVC011 23/23 A2991 RMK AO2
Observed Flight Rules
Aug-15 @ 14:35 UTC
(26 minutes ago)
MVFR
Wind Visibility
200° at 5 knots 9 miles
Clouds
  • Overcast at 1,100' AGL
Temperature Dewpoint
23°C / 73°F 23°C / 73°F
Humidity Altimeter Pressure
100% 29.91" Hg 1013 hPa